createdAt,value
2019-04-23T00:02:20.510Z,12.49
2019-04-23T00:04:47.961Z,12.44
2019-04-23T00:09:59.542Z,12.37
2019-04-23T00:12:30.144Z,12.35
2019-04-23T00:17:32.073Z,12.26
2019-04-23T00:19:56.719Z,12.22
2019-04-23T00:22:36.974Z,12.16
2019-04-23T00:25:34.504Z,12.11
2019-04-23T00:27:55.241Z,12.05
2019-04-23T00:30:18.740Z,12.01
2019-04-23T00:32:47.579Z,11.98
2019-04-23T00:35:16.004Z,11.95
2019-04-23T00:38:06.612Z,11.90
2019-04-23T00:40:27.057Z,11.87
2019-04-23T00:43:03.483Z,11.84
2019-04-23T00:45:16.770Z,11.79
2019-04-23T00:47:51.383Z,11.74
2019-04-23T00:50:26.554Z,11.69
2019-04-23T00:52:50.364Z,11.65
2019-04-23T00:55:35.668Z,11.64
2019-04-23T00:57:48.858Z,11.59
2019-04-23T01:00:26.375Z,11.56
2019-04-23T01:02:53.074Z,11.53
2019-04-23T01:05:24.076Z,11.49
2019-04-23T01:07:50.106Z,11.45
2019-04-23T01:15:28.920Z,11.36
2019-04-23T01:20:37.378Z,11.31
2019-04-23T01:22:44.332Z,11.28
2019-04-23T01:25:24.680Z,11.24
2019-04-23T01:28:23.157Z,11.20
2019-04-23T01:30:59.748Z,11.18
2019-04-23T01:33:31.329Z,11.13
2019-04-23T01:36:03.174Z,11.12
2019-04-23T01:38:30.981Z,11.08
2019-04-23T01:40:45.715Z,11.05
2019-04-23T01:43:28.799Z,11.02
2019-04-23T01:45:49.478Z,10.99
2019-04-23T01:48:26.162Z,10.96
2019-04-23T01:50:55.062Z,10.92
2019-04-23T01:53:26.506Z,10.88
2019-04-23T01:59:00.250Z,10.84
2019-04-23T02:00:52.849Z,10.82
2019-04-23T02:03:26.549Z,10.80
2019-04-23T02:08:26.233Z,10.77
2019-04-23T02:13:33.919Z,10.71
2019-04-23T02:16:11.698Z,10.68
2019-04-23T02:18:33.246Z,10.65
2019-04-23T02:21:02.457Z,10.61
2019-04-23T02:23:39.531Z,10.59
2019-04-23T02:26:02.737Z,10.53
2019-04-23T02:28:46.323Z,10.51
2019-04-23T02:31:44.871Z,10.49
2019-04-23T02:34:07.214Z,10.48
2019-04-23T02:36:32.179Z,10.47
2019-04-23T02:43:46.000Z,10.41
2019-04-23T02:46:09.347Z,10.38
2019-04-23T02:49:09.763Z,10.37
2019-04-23T02:51:21.641Z,10.35
2019-04-23T02:56:41.657Z,10.29
2019-04-23T03:11:25.831Z,10.19
2019-04-23T03:13:53.949Z,10.18
2019-04-23T03:16:38.121Z,10.16
2019-04-23T03:19:06.988Z,10.14
2019-04-23T03:21:42.565Z,10.11
2019-04-23T03:24:35.002Z,10.09
2019-04-23T03:37:26.469Z,10.02
2019-04-23T03:39:50.062Z,10.02
2019-04-23T03:44:44.587Z,9.99
2019-04-23T03:47:07.072Z,9.99
2019-04-23T03:52:13.626Z,9.95
2019-04-23T03:57:13.523Z,9.92
2019-04-23T04:02:24.387Z,9.86
2019-04-23T04:04:34.995Z,9.84
2019-04-23T04:07:10.685Z,9.81
2019-04-23T04:09:38.658Z,9.81
2019-04-23T04:12:12.474Z,9.80
2019-04-23T04:22:18.242Z,9.79
2019-04-23T04:24:39.558Z,9.78
2019-04-23T04:29:47.318Z,9.76
2019-04-23T04:32:03.552Z,9.76
2019-04-23T04:42:11.961Z,9.81
2019-04-23T04:44:50.279Z,9.83
2019-04-23T04:49:51.380Z,9.87
2019-04-23T04:52:33.573Z,9.91
2019-04-23T04:54:37.638Z,9.96
2019-04-23T04:57:20.856Z,10.00
2019-04-23T04:59:56.275Z,10.03
2019-04-23T05:07:19.091Z,10.18
2019-04-23T05:10:09.384Z,10.22
2019-04-23T05:12:22.006Z,10.27
2019-04-23T05:14:54.562Z,10.32
2019-04-23T05:17:24.436Z,10.39
2019-04-23T05:22:15.698Z,10.55
2019-04-23T05:27:15.729Z,10.72
2019-04-23T05:29:50.758Z,10.82
2019-04-23T05:32:14.972Z,11.00
2019-04-23T05:34:52.112Z,11.47
2019-04-23T05:37:35.508Z,12.16
2019-04-23T05:39:45.647Z,12.86
2019-04-23T05:42:31.766Z,13.54
2019-04-23T05:47:25.490Z,14.73
2019-04-23T05:52:16.044Z,15.55
2019-04-23T05:54:58.925Z,16.02
2019-04-23T05:57:13.749Z,16.43
2019-04-23T05:59:48.227Z,16.75
2019-04-23T06:02:20.378Z,17.10
2019-04-23T06:04:52.827Z,17.42
2019-04-23T06:09:52.107Z,18.00
2019-04-23T06:12:22.054Z,18.07
2019-04-23T06:14:52.475Z,18.32
2019-04-23T06:17:29.686Z,18.46
2019-04-23T06:19:58.558Z,18.60
2019-04-23T06:22:29.075Z,18.57
2019-04-23T06:24:53.539Z,18.75
2019-04-23T06:29:49.886Z,19.01
2019-04-23T06:32:25.825Z,19.03
2019-04-23T06:34:54.614Z,19.08
2019-04-23T06:37:36.057Z,19.28
2019-04-23T06:39:55.183Z,19.21
2019-04-23T06:42:20.726Z,19.19
2019-04-23T06:44:58.468Z,19.47
2019-04-23T06:47:35.661Z,19.73
2019-04-23T06:49:55.610Z,19.97
2019-04-23T06:52:21.584Z,20.23
2019-04-23T06:57:22.305Z,20.49
2019-04-23T06:59:54.563Z,20.54
2019-04-23T07:02:30.921Z,20.67
2019-04-23T07:05:06.519Z,20.70
2019-04-23T07:07:46.587Z,20.91
2019-04-23T07:09:58.066Z,21.01
2019-04-23T07:12:32.368Z,21.24
2019-04-23T07:15:11.620Z,21.29
2019-04-23T07:17:24.955Z,21.37
2019-04-23T07:20:05.127Z,21.60
2019-04-23T07:22:28.688Z,21.89
2019-04-23T07:25:03.203Z,21.85
2019-04-23T07:27:31.744Z,21.88
2019-04-23T07:32:31.245Z,22.12
2019-04-23T07:35:07.074Z,22.01
2019-04-23T07:37:54.736Z,22.15
2019-04-23T07:40:26.331Z,22.18
2019-04-23T07:42:42.083Z,21.69
2019-04-23T07:45:16.032Z,21.22
2019-04-23T07:50:49.150Z,20.91
2019-04-23T07:53:13.170Z,21.10
2019-04-23T07:58:14.304Z,21.59
2019-04-23T08:00:45.584Z,21.87
2019-04-23T08:03:17.287Z,22.11
2019-04-23T08:05:49.727Z,22.39
2019-04-23T08:08:08.944Z,22.38
2019-04-23T08:10:46.616Z,22.39
2019-04-23T08:13:15.622Z,22.05
2019-04-23T08:15:43.034Z,21.91
2019-04-23T08:18:13.457Z,21.70
2019-04-23T08:20:42.214Z,21.82
2019-04-23T08:23:34.564Z,21.94
2019-04-23T08:26:29.545Z,22.07
2019-04-23T08:28:58.344Z,22.19
2019-04-23T08:31:27.127Z,22.02
2019-04-23T08:33:56.601Z,21.99
2019-04-23T08:38:51.147Z,22.01
2019-04-23T08:41:26.952Z,21.94
2019-04-23T08:43:59.495Z,22.14
2019-04-23T08:46:35.548Z,22.12
2019-04-23T08:49:05.059Z,22.25
2019-04-23T08:53:56.943Z,22.67
2019-04-23T08:56:31.977Z,22.99
2019-04-23T08:59:02.399Z,23.03
2019-04-23T09:01:33.022Z,22.96
2019-04-23T09:04:01.527Z,22.75
2019-04-23T09:06:29.454Z,22.88
2019-04-23T09:09:01.955Z,22.83
2019-04-23T09:11:41.771Z,22.87
2019-04-23T09:13:57.558Z,22.89
2019-04-23T09:19:11.131Z,22.96
2019-04-23T09:21:34.057Z,23.06
2019-04-23T09:23:59.163Z,23.40
2019-04-23T09:26:37.928Z,23.64
2019-04-23T09:29:19.794Z,23.64
2019-04-23T09:32:05.972Z,23.30
2019-04-23T09:34:23.720Z,23.13
2019-04-23T09:37:04.695Z,22.83
2019-04-23T09:39:46.964Z,23.38
2019-04-23T09:42:19.497Z,23.66
2019-04-23T09:45:01.294Z,23.88
2019-04-23T09:47:47.350Z,23.99
2019-04-23T09:50:17.202Z,24.17
2019-04-23T09:55:24.851Z,23.80
2019-04-23T09:57:51.561Z,23.41
2019-04-23T10:00:22.934Z,23.04
2019-04-23T10:02:34.008Z,22.87
2019-04-23T10:05:03.277Z,22.80
2019-04-23T10:07:32.673Z,22.72
2019-04-23T10:09:49.825Z,22.76
2019-04-23T10:12:20.059Z,22.58
2019-04-23T10:14:59.256Z,22.66
2019-04-23T10:17:20.186Z,23.02
2019-04-23T10:19:48.858Z,23.34
2019-04-23T10:22:17.509Z,23.72
2019-04-23T10:24:46.087Z,23.80
2019-04-23T10:27:14.923Z,23.63
2019-04-23T10:29:43.720Z,23.45
2019-04-23T10:32:13.603Z,23.33
2019-04-23T10:34:52.453Z,23.24
2019-04-23T10:37:13.590Z,23.16
2019-04-23T10:39:46.888Z,23.28
2019-04-23T10:42:14.290Z,23.46
2019-04-23T10:44:52.416Z,23.73
2019-04-23T10:48:14.940Z,23.67
2019-04-23T10:50:52.863Z,23.74
2019-04-23T10:55:58.767Z,24.03
2019-04-23T11:01:00.207Z,24.42
2019-04-23T11:05:59.004Z,24.27
2019-04-23T11:08:24.057Z,24.28
2019-04-23T11:10:58.523Z,24.38
2019-04-23T11:13:31.475Z,24.54
2019-04-23T11:16:25.082Z,24.85
2019-04-23T11:18:45.455Z,24.89
2019-04-23T11:21:05.339Z,24.84
2019-04-23T11:23:34.458Z,24.79
2019-04-23T11:26:06.526Z,24.79
2019-04-23T11:28:32.786Z,24.74
2019-04-23T11:31:13.890Z,24.86
2019-04-23T11:33:43.045Z,25.01
2019-04-23T11:41:20.734Z,24.73
2019-04-23T11:43:44.330Z,24.70
2019-04-23T11:48:51.982Z,24.94
2019-04-23T11:56:22.731Z,25.09
2019-04-23T11:58:42.707Z,25.21
2019-04-23T12:01:38.523Z,25.40
2019-04-23T12:04:05.117Z,25.42
2019-04-23T12:06:41.788Z,25.45
2019-04-23T12:09:31.447Z,25.54
2019-04-23T12:11:58.331Z,25.41
2019-04-23T12:22:15.092Z,24.12
2019-04-23T12:24:58.825Z,23.83
2019-04-23T12:29:33.843Z,23.11
2019-04-23T12:32:38.353Z,22.83
2019-04-23T12:40:15.694Z,22.61
2019-04-23T12:45:15.162Z,23.12
2019-04-23T12:47:58.204Z,23.09
2019-04-23T12:52:41.235Z,22.76
2019-04-23T12:55:19.335Z,22.63
2019-04-23T12:57:42.306Z,22.47
2019-04-23T13:00:19.542Z,22.34
2019-04-23T13:07:48.850Z,22.07
2019-04-23T13:10:14.789Z,22.18
2019-04-23T13:15:18.927Z,22.43
2019-04-23T13:17:50.476Z,22.57
2019-04-23T13:20:19.444Z,22.74
2019-04-23T13:23:01.562Z,22.96
2019-04-23T13:28:06.860Z,23.54
2019-04-23T13:30:49.545Z,23.72
2019-04-23T13:33:21.105Z,23.69
2019-04-23T13:38:35.048Z,23.71
2019-04-23T13:40:53.151Z,23.67
2019-04-23T13:43:19.528Z,23.64
2019-04-23T13:45:59.194Z,23.55
2019-04-23T13:48:18.345Z,23.61
2019-04-23T13:53:37.174Z,23.57
2019-04-23T13:55:49.095Z,23.57
2019-04-23T14:03:30.320Z,23.12
2019-04-23T14:09:28.072Z,22.88
2019-04-23T14:11:22.294Z,22.72
2019-04-23T14:13:52.034Z,22.58
2019-04-23T14:16:21.147Z,22.52
2019-04-23T14:31:16.718Z,22.17
2019-04-23T14:33:56.411Z,22.14
2019-04-23T14:36:21.198Z,22.08
2019-04-23T14:38:52.897Z,22.01
2019-04-23T14:41:23.430Z,21.95
2019-04-23T14:43:56.124Z,21.90
2019-04-23T14:49:04.252Z,21.71
2019-04-23T14:53:48.241Z,21.60
2019-04-23T14:56:21.632Z,21.57
2019-04-23T14:59:02.796Z,21.56
2019-04-23T15:03:55.524Z,21.51
2019-04-23T15:06:33.229Z,21.51
2019-04-23T15:09:13.821Z,21.50
2019-04-23T15:11:26.385Z,21.46
2019-04-23T15:13:56.798Z,21.48
2019-04-23T15:19:28.501Z,21.40
2019-04-23T15:24:23.494Z,21.44
2019-04-23T15:29:02.792Z,21.56
2019-04-23T15:31:52.458Z,21.62
2019-04-23T15:39:24.299Z,21.76
2019-04-23T15:41:57.246Z,21.81
2019-04-23T15:49:19.856Z,21.91
2019-04-23T15:51:56.596Z,21.94
2019-04-23T15:56:55.311Z,22.01
2019-04-23T15:59:27.508Z,22.08
2019-04-23T16:01:43.461Z,22.11
2019-04-23T16:03:55.740Z,22.12
2019-04-23T16:06:28.498Z,22.17
2019-04-23T16:09:36.184Z,22.16
2019-04-23T16:11:47.055Z,22.11
2019-04-23T16:14:41.117Z,22.10
2019-04-23T16:16:58.377Z,22.07
2019-04-23T16:19:36.056Z,22.04
2019-04-23T16:24:22.273Z,21.97
2019-04-23T16:27:09.282Z,21.93
2019-04-23T16:32:08.257Z,21.85
2019-04-23T16:34:31.409Z,21.80
2019-04-23T16:39:29.550Z,21.65
2019-04-23T16:42:08.809Z,21.59
2019-04-23T16:47:10.496Z,21.47
2019-04-23T16:49:57.559Z,21.40
2019-04-23T16:52:09.610Z,21.32
2019-04-23T16:54:43.381Z,21.26
2019-04-23T16:57:22.724Z,21.21
2019-04-23T17:00:07.516Z,21.15
2019-04-23T17:02:17.617Z,21.10
2019-04-23T17:04:38.672Z,21.06
2019-04-23T17:09:51.202Z,20.98
2019-04-23T17:12:10.911Z,20.93
2019-04-23T17:14:41.405Z,20.91
2019-04-23T17:17:09.948Z,20.87
2019-04-23T17:20:02.649Z,20.82
2019-04-23T17:22:09.899Z,20.78
2019-04-23T17:24:40.424Z,20.70
2019-04-23T17:27:16.835Z,20.66
2019-04-23T17:29:43.344Z,20.61
2019-04-23T17:32:16.599Z,20.58
2019-04-23T17:34:57.270Z,20.53
2019-04-23T17:37:26.737Z,20.50
2019-04-23T17:40:08.645Z,20.36
2019-04-23T17:45:16.820Z,20.34
2019-04-23T17:55:13.339Z,20.06
2019-04-23T17:57:39.380Z,20.01
2019-04-23T18:05:11.154Z,19.83
2019-04-23T18:07:52.266Z,19.78
2019-04-23T18:10:28.328Z,19.70
2019-04-23T18:12:51.692Z,19.63
2019-04-23T18:15:09.615Z,19.57
2019-04-23T18:17:48.192Z,19.50
2019-04-23T18:20:50.503Z,19.40
2019-04-23T18:23:06.193Z,19.33
2019-04-23T18:25:45.688Z,19.24
2019-04-23T18:28:08.664Z,19.17
2019-04-23T18:30:56.647Z,19.08
2019-04-23T18:36:08.203Z,18.94
2019-04-23T18:38:46.634Z,18.83
2019-04-23T18:41:27.236Z,18.76
2019-04-23T18:43:44.910Z,18.72
2019-04-23T18:46:27.979Z,18.69
2019-04-23T18:48:51.265Z,18.64
2019-04-23T18:51:34.151Z,18.59
2019-04-23T18:58:54.443Z,18.46
2019-04-23T19:06:34.381Z,18.29
2019-04-23T19:09:16.410Z,18.22
2019-04-23T19:12:09.125Z,18.15
2019-04-23T19:14:40.885Z,18.07
2019-04-23T19:24:44.906Z,17.82
2019-04-23T19:32:00.738Z,17.61
2019-04-23T19:37:24.173Z,17.50
2019-04-23T19:39:36.926Z,17.44
2019-04-23T19:47:17.107Z,17.28
2019-04-23T19:52:48.836Z,17.16
2019-04-23T19:54:52.186Z,17.09
2019-04-23T19:57:13.608Z,17.05
2019-04-23T19:59:51.199Z,17.00
2019-04-23T20:02:45.246Z,16.94
2019-04-23T20:12:15.672Z,16.72
2019-04-23T20:14:47.424Z,16.69
2019-04-23T20:17:31.764Z,16.67
2019-04-23T20:22:31.442Z,16.62
2019-04-23T20:25:03.925Z,16.59
2019-04-23T20:27:18.523Z,16.54
2019-04-23T20:30:14.423Z,16.49
2019-04-23T20:37:42.789Z,16.33
2019-04-23T20:42:39.020Z,16.29
2019-04-23T20:47:34.535Z,16.23
2019-04-23T20:49:48.704Z,16.20
2019-04-23T20:52:15.269Z,16.17
2019-04-23T21:00:03.574Z,16.08
2019-04-23T21:02:52.423Z,16.05
2019-04-23T21:07:50.392Z,16.00
2019-04-23T21:10:18.114Z,15.99
2019-04-23T21:22:45.321Z,15.97
2019-04-23T21:25:11.856Z,15.97
2019-04-23T21:30:48.980Z,15.96
2019-04-23T21:36:10.760Z,15.96
2019-04-23T21:39:03.250Z,15.94
2019-04-23T21:41:41.566Z,15.93
2019-04-23T21:44:10.469Z,15.93
2019-04-23T21:46:47.582Z,15.91
2019-04-23T21:53:54.965Z,15.90
2019-04-23T21:56:33.179Z,15.90
2019-04-23T21:59:03.985Z,15.89
2019-04-23T22:01:39.742Z,15.90
2019-04-23T22:06:35.549Z,15.88
2019-04-23T22:14:13.102Z,15.89
2019-04-23T22:16:41.078Z,15.87
2019-04-23T22:21:41.155Z,15.85
2019-04-23T22:26:33.851Z,15.82
2019-04-23T22:29:15.755Z,15.80
2019-04-23T22:34:22.080Z,15.75
2019-04-23T22:36:39.366Z,15.71
2019-04-23T22:39:11.584Z,15.70
2019-04-23T22:41:42.894Z,15.68
2019-04-23T22:49:20.094Z,15.60
2019-04-23T22:51:56.966Z,15.55
2019-04-23T22:54:13.980Z,15.51
2019-04-23T22:56:50.410Z,15.46
2019-04-23T23:04:24.072Z,15.30
2019-04-23T23:06:57.335Z,15.22
2019-04-23T23:09:25.710Z,15.15
2019-04-23T23:14:24.125Z,14.99
2019-04-23T23:16:50.430Z,14.91
2019-04-23T23:19:30.194Z,14.85
2019-04-23T23:24:21.658Z,14.70
2019-04-23T23:26:55.553Z,14.64
2019-04-23T23:29:42.793Z,14.61
2019-04-23T23:32:09.670Z,14.56
2019-04-23T23:34:28.236Z,14.52
2019-04-23T23:37:00.195Z,14.52
2019-04-23T23:39:28.807Z,14.51
2019-04-23T23:44:47.932Z,14.52
2019-04-23T23:49:24.370Z,14.55
2019-04-23T23:51:57.714Z,14.60
2019-04-23T23:54:18.171Z,14.64
2019-04-23T23:57:12.234Z,14.68
2019-04-23T23:59:55.934Z,14.71
